sensor_id;sensor_type;location;lat;lon;timestamp;P1;durP1;ratioP1;P2;durP2;ratioP2
66669;SDS011;53568;52.164;4.472;2023-02-28T00:01:11;5.22;;;5.20;;
66669;SDS011;53568;52.164;4.472;2023-02-28T00:03:38;5.22;;;5.21;;
66669;SDS011;53568;52.164;4.472;2023-02-28T00:06:04;5.13;;;5.13;;
66669;SDS011;53568;52.164;4.472;2023-02-28T00:08:31;5.58;;;5.55;;
66669;SDS011;53568;52.164;4.472;2023-02-28T00:11:00;5.31;;;5.30;;
66669;SDS011;53568;52.164;4.472;2023-02-28T00:13:27;4.97;;;4.97;;
66669;SDS011;53568;52.164;4.472;2023-02-28T00:15:59;4.80;;;4.80;;
66669;SDS011;53568;52.164;4.472;2023-02-28T00:18:26;5.25;;;5.25;;
66669;SDS011;53568;52.164;4.472;2023-02-28T00:20:51;5.22;;;5.22;;
66669;SDS011;53568;52.164;4.472;2023-02-28T00:23:17;4.97;;;4.97;;
66669;SDS011;53568;52.164;4.472;2023-02-28T00:25:42;4.97;;;4.94;;
66669;SDS011;53568;52.164;4.472;2023-02-28T00:28:08;5.22;;;5.21;;
66669;SDS011;53568;52.164;4.472;2023-02-28T00:30:34;5.05;;;5.04;;
66669;SDS011;53568;52.164;4.472;2023-02-28T00:32:59;5.34;;;5.34;;
66669;SDS011;53568;52.164;4.472;2023-02-28T00:35:24;5.26;;;5.26;;
66669;SDS011;53568;52.164;4.472;2023-02-28T00:37:50;5.64;;;5.63;;
66669;SDS011;53568;52.164;4.472;2023-02-28T00:40:15;5.16;;;5.15;;
66669;SDS011;53568;52.164;4.472;2023-02-28T00:42:41;5.40;;;5.40;;
66669;SDS011;53568;52.164;4.472;2023-02-28T00:45:07;5.46;;;5.46;;
66669;SDS011;53568;52.164;4.472;2023-02-28T00:47:33;5.22;;;5.22;;
66669;SDS011;53568;52.164;4.472;2023-02-28T00:49:59;5.52;;;5.51;;
66669;SDS011;53568;52.164;4.472;2023-02-28T00:52:25;5.31;;;5.29;;
66669;SDS011;53568;52.164;4.472;2023-02-28T00:54:50;5.84;;;5.83;;
66669;SDS011;53568;52.164;4.472;2023-02-28T00:57:16;5.55;;;5.54;;
66669;SDS011;53568;52.164;4.472;2023-02-28T00:59:41;5.55;;;5.55;;
66669;SDS011;53568;52.164;4.472;2023-02-28T01:02:07;5.52;;;5.52;;
66669;SDS011;53568;52.164;4.472;2023-02-28T01:04:33;5.18;;;5.18;;
66669;SDS011;53568;52.164;4.472;2023-02-28T01:06:58;5.21;;;5.21;;
66669;SDS011;53568;52.164;4.472;2023-02-28T01:09:24;5.55;;;5.55;;
66669;SDS011;53568;52.164;4.472;2023-02-28T01:11:49;5.33;;;5.33;;
66669;SDS011;53568;52.164;4.472;2023-02-28T01:14:16;5.41;;;5.40;;
66669;SDS011;53568;52.164;4.472;2023-02-28T01:16:42;5.86;;;5.85;;
66669;SDS011;53568;52.164;4.472;2023-02-28T01:19:08;5.57;;;5.55;;
66669;SDS011;53568;52.164;4.472;2023-02-28T01:21:35;5.89;;;5.88;;
66669;SDS011;53568;52.164;4.472;2023-02-28T01:24:02;5.80;;;5.79;;
66669;SDS011;53568;52.164;4.472;2023-02-28T01:26:28;5.60;;;5.60;;
66669;SDS011;53568;52.164;4.472;2023-02-28T01:28:54;5.51;;;5.51;;
66669;SDS011;53568;52.164;4.472;2023-02-28T01:31:20;5.46;;;5.46;;
66669;SDS011;53568;52.164;4.472;2023-02-28T01:33:46;5.31;;;5.31;;
66669;SDS011;53568;52.164;4.472;2023-02-28T01:36:14;5.83;;;5.83;;
66669;SDS011;53568;52.164;4.472;2023-02-28T01:38:42;5.80;;;5.80;;
66669;SDS011;53568;52.164;4.472;2023-02-28T01:41:09;5.58;;;5.55;;
66669;SDS011;53568;52.164;4.472;2023-02-28T01:46:07;5.81;;;5.81;;
66669;SDS011;53568;52.164;4.472;2023-02-28T01:48:34;5.63;;;5.62;;
66669;SDS011;53568;52.164;4.472;2023-02-28T01:51:06;5.56;;;5.55;;
66669;SDS011;53568;52.164;4.472;2023-02-28T01:53:44;5.83;;;5.81;;
66669;SDS011;53568;52.164;4.472;2023-02-28T01:56:19;6.15;;;6.15;;
66669;SDS011;53568;52.164;4.472;2023-02-28T01:58:51;6.30;;;6.30;;
66669;SDS011;53568;52.164;4.472;2023-02-28T02:01:19;5.94;;;5.93;;
66669;SDS011;53568;52.164;4.472;2023-02-28T02:03:49;6.24;;;6.22;;
66669;SDS011;53568;52.164;4.472;2023-02-28T02:06:30;6.36;;;6.35;;
66669;SDS011;53568;52.164;4.472;2023-02-28T02:09:03;6.40;;;6.40;;
66669;SDS011;53568;52.164;4.472;2023-02-28T02:11:29;6.69;;;6.69;;
66669;SDS011;53568;52.164;4.472;2023-02-28T02:25:08;6.92;;;6.92;;
66669;SDS011;53568;52.164;4.472;2023-02-28T02:41:23;7.66;;;7.66;;
66669;SDS011;53568;52.164;4.472;2023-02-28T02:44:02;7.80;;;7.80;;
66669;SDS011;53568;52.164;4.472;2023-02-28T02:46:46;8.22;;;8.22;;
66669;SDS011;53568;52.164;4.472;2023-02-28T02:49:22;7.83;;;7.83;;
66669;SDS011;53568;52.164;4.472;2023-02-28T02:51:53;7.78;;;7.78;;
66669;SDS011;53568;52.164;4.472;2023-02-28T02:54:27;7.78;;;7.78;;
66669;SDS011;53568;52.164;4.472;2023-02-28T02:57:02;7.53;;;7.53;;
66669;SDS011;53568;52.164;4.472;2023-02-28T02:59:35;8.00;;;8.00;;
66669;SDS011;53568;52.164;4.472;2023-02-28T03:02:06;7.73;;;7.73;;
66669;SDS011;53568;52.164;4.472;2023-02-28T03:04:46;7.63;;;7.63;;
66669;SDS011;53568;52.164;4.472;2023-02-28T03:07:25;7.70;;;7.70;;
66669;SDS011;53568;52.164;4.472;2023-02-28T03:09:52;7.49;;;7.49;;
66669;SDS011;53568;52.164;4.472;2023-02-28T03:12:19;7.21;;;7.21;;
66669;SDS011;53568;52.164;4.472;2023-02-28T03:14:56;7.38;;;7.38;;
66669;SDS011;53568;52.164;4.472;2023-02-28T03:17:49;7.11;;;7.10;;
66669;SDS011;53568;52.164;4.472;2023-02-28T03:20:35;6.76;;;6.76;;
66669;SDS011;53568;52.164;4.472;2023-02-28T03:23:17;7.22;;;7.22;;
66669;SDS011;53568;52.164;4.472;2023-02-28T03:25:53;7.27;;;7.27;;
66669;SDS011;53568;52.164;4.472;2023-02-28T03:28:40;7.07;;;7.07;;
66669;SDS011;53568;52.164;4.472;2023-02-28T03:33:47;7.80;;;7.80;;
66669;SDS011;53568;52.164;4.472;2023-02-28T03:36:21;7.78;;;7.78;;
66669;SDS011;53568;52.164;4.472;2023-02-28T03:38:58;7.73;;;7.73;;
66669;SDS011;53568;52.164;4.472;2023-02-28T03:44:17;7.57;;;7.57;;
66669;SDS011;53568;52.164;4.472;2023-02-28T03:47:12;8.24;;;8.24;;
66669;SDS011;53568;52.164;4.472;2023-02-28T03:49:59;7.93;;;7.93;;
66669;SDS011;53568;52.164;4.472;2023-02-28T03:52:33;8.02;;;8.02;;
66669;SDS011;53568;52.164;4.472;2023-02-28T03:55:06;8.53;;;8.53;;
66669;SDS011;53568;52.164;4.472;2023-02-28T03:57:42;8.22;;;8.22;;
66669;SDS011;53568;52.164;4.472;2023-02-28T04:00:25;8.44;;;8.44;;
66669;SDS011;53568;52.164;4.472;2023-02-28T04:02:56;8.45;;;8.45;;
66669;SDS011;53568;52.164;4.472;2023-02-28T04:05:22;8.71;;;8.71;;
66669;SDS011;53568;52.164;4.472;2023-02-28T04:07:49;8.19;;;8.19;;
66669;SDS011;53568;52.164;4.472;2023-02-28T04:10:15;7.93;;;7.93;;
66669;SDS011;53568;52.164;4.472;2023-02-28T04:12:41;8.53;;;8.53;;
66669;SDS011;53568;52.164;4.472;2023-02-28T04:15:07;8.57;;;8.57;;
66669;SDS011;53568;52.164;4.472;2023-02-28T04:17:33;8.13;;;8.13;;
66669;SDS011;53568;52.164;4.472;2023-02-28T04:19:58;8.74;;;8.74;;
66669;SDS011;53568;52.164;4.472;2023-02-28T04:22:24;8.43;;;8.43;;
66669;SDS011;53568;52.164;4.472;2023-02-28T04:24:52;8.49;;;8.49;;
66669;SDS011;53568;52.164;4.472;2023-02-28T04:27:20;8.15;;;8.15;;
66669;SDS011;53568;52.164;4.472;2023-02-28T04:29:46;7.92;;;7.92;;
66669;SDS011;53568;52.164;4.472;2023-02-28T04:32:12;8.53;;;8.52;;
66669;SDS011;53568;52.164;4.472;2023-02-28T04:34:37;8.04;;;8.00;;
66669;SDS011;53568;52.164;4.472;2023-02-28T04:37:03;7.79;;;7.79;;
66669;SDS011;53568;52.164;4.472;2023-02-28T04:39:29;7.85;;;7.85;;
66669;SDS011;53568;52.164;4.472;2023-02-28T04:41:55;8.14;;;8.14;;
66669;SDS011;53568;52.164;4.472;2023-02-28T04:44:21;8.29;;;8.29;;
66669;SDS011;53568;52.164;4.472;2023-02-28T04:46:47;8.32;;;8.32;;
66669;SDS011;53568;52.164;4.472;2023-02-28T04:49:14;8.21;;;8.19;;
66669;SDS011;53568;52.164;4.472;2023-02-28T04:51:40;8.46;;;8.46;;
66669;SDS011;53568;52.164;4.472;2023-02-28T04:54:07;8.55;;;8.55;;
66669;SDS011;53568;52.164;4.472;2023-02-28T04:56:33;8.35;;;8.35;;
66669;SDS011;53568;52.164;4.472;2023-02-28T04:58:58;8.48;;;8.47;;
66669;SDS011;53568;52.164;4.472;2023-02-28T05:03:51;8.32;;;8.31;;
66669;SDS011;53568;52.164;4.472;2023-02-28T05:06:18;8.80;;;8.80;;
66669;SDS011;53568;52.164;4.472;2023-02-28T05:08:45;8.75;;;8.75;;
66669;SDS011;53568;52.164;4.472;2023-02-28T05:11:15;9.10;;;9.10;;
66669;SDS011;53568;52.164;4.472;2023-02-28T05:13:43;8.55;;;8.55;;
66669;SDS011;53568;52.164;4.472;2023-02-28T05:16:09;9.32;;;9.32;;
66669;SDS011;53568;52.164;4.472;2023-02-28T05:18:35;8.75;;;8.75;;
66669;SDS011;53568;52.164;4.472;2023-02-28T05:21:01;8.47;;;8.47;;
66669;SDS011;53568;52.164;4.472;2023-02-28T05:23:27;8.52;;;8.52;;
66669;SDS011;53568;52.164;4.472;2023-02-28T05:25:53;7.81;;;7.81;;
66669;SDS011;53568;52.164;4.472;2023-02-28T05:28:19;8.29;;;8.27;;
66669;SDS011;53568;52.164;4.472;2023-02-28T05:30:45;8.59;;;8.59;;
66669;SDS011;53568;52.164;4.472;2023-02-28T05:33:11;8.20;;;8.19;;
66669;SDS011;53568;52.164;4.472;2023-02-28T05:35:38;7.81;;;7.80;;
66669;SDS011;53568;52.164;4.472;2023-02-28T05:38:05;8.47;;;8.47;;
66669;SDS011;53568;52.164;4.472;2023-02-28T05:40:31;8.84;;;8.84;;
66669;SDS011;53568;52.164;4.472;2023-02-28T05:42:57;8.59;;;8.58;;
66669;SDS011;53568;52.164;4.472;2023-02-28T05:45:22;9.31;;;9.31;;
66669;SDS011;53568;52.164;4.472;2023-02-28T05:47:48;9.32;;;9.32;;
66669;SDS011;53568;52.164;4.472;2023-02-28T05:50:13;9.44;;;9.44;;
66669;SDS011;53568;52.164;4.472;2023-02-28T05:52:39;9.35;;;9.35;;
66669;SDS011;53568;52.164;4.472;2023-02-28T05:55:04;9.90;;;9.89;;
66669;SDS011;53568;52.164;4.472;2023-02-28T05:57:30;10.01;;;9.98;;
66669;SDS011;53568;52.164;4.472;2023-02-28T05:59:56;9.73;;;9.73;;
66669;SDS011;53568;52.164;4.472;2023-02-28T06:02:21;9.74;;;9.74;;
66669;SDS011;53568;52.164;4.472;2023-02-28T06:04:47;9.69;;;9.69;;
66669;SDS011;53568;52.164;4.472;2023-02-28T06:07:12;10.24;;;10.22;;
66669;SDS011;53568;52.164;4.472;2023-02-28T06:09:38;9.91;;;9.75;;
66669;SDS011;53568;52.164;4.472;2023-02-28T06:12:04;10.50;;;10.50;;
66669;SDS011;53568;52.164;4.472;2023-02-28T06:14:32;10.70;;;10.70;;
66669;SDS011;53568;52.164;4.472;2023-02-28T06:16:59;10.36;;;10.36;;
66669;SDS011;53568;52.164;4.472;2023-02-28T06:19:25;10.68;;;10.68;;
66669;SDS011;53568;52.164;4.472;2023-02-28T06:21:52;10.84;;;10.82;;
66669;SDS011;53568;52.164;4.472;2023-02-28T06:24:20;11.27;;;11.27;;
66669;SDS011;53568;52.164;4.472;2023-02-28T06:26:46;11.36;;;11.35;;
66669;SDS011;53568;52.164;4.472;2023-02-28T06:29:12;11.16;;;11.16;;
66669;SDS011;53568;52.164;4.472;2023-02-28T06:31:38;11.41;;;11.41;;
66669;SDS011;53568;52.164;4.472;2023-02-28T06:34:04;11.59;;;11.53;;
66669;SDS011;53568;52.164;4.472;2023-02-28T06:36:30;11.73;;;11.72;;
66669;SDS011;53568;52.164;4.472;2023-02-28T06:38:55;11.67;;;11.49;;
66669;SDS011;53568;52.164;4.472;2023-02-28T06:41:25;11.53;;;11.44;;
66669;SDS011;53568;52.164;4.472;2023-02-28T06:43:52;11.41;;;11.31;;
66669;SDS011;53568;52.164;4.472;2023-02-28T06:46:18;11.86;;;11.80;;
66669;SDS011;53568;52.164;4.472;2023-02-28T06:48:44;12.22;;;12.20;;
66669;SDS011;53568;52.164;4.472;2023-02-28T06:51:12;11.74;;;11.69;;
66669;SDS011;53568;52.164;4.472;2023-02-28T06:53:40;12.03;;;12.03;;
66669;SDS011;53568;52.164;4.472;2023-02-28T06:56:07;12.29;;;12.25;;
66669;SDS011;53568;52.164;4.472;2023-02-28T06:58:37;12.38;;;12.34;;
66669;SDS011;53568;52.164;4.472;2023-02-28T07:01:04;13.45;;;13.36;;
66669;SDS011;53568;52.164;4.472;2023-02-28T07:03:31;13.80;;;13.69;;
66669;SDS011;53568;52.164;4.472;2023-02-28T07:05:56;13.66;;;13.63;;
66669;SDS011;53568;52.164;4.472;2023-02-28T07:08:25;13.98;;;13.98;;
66669;SDS011;53568;52.164;4.472;2023-02-28T07:10:55;14.05;;;14.05;;
66669;SDS011;53568;52.164;4.472;2023-02-28T07:13:21;14.48;;;14.48;;
66669;SDS011;53568;52.164;4.472;2023-02-28T07:15:53;14.28;;;14.28;;
66669;SDS011;53568;52.164;4.472;2023-02-28T07:18:23;15.02;;;14.99;;
66669;SDS011;53568;52.164;4.472;2023-02-28T07:20:49;14.30;;;14.30;;
66669;SDS011;53568;52.164;4.472;2023-02-28T07:23:15;12.29;;;12.29;;
66669;SDS011;53568;52.164;4.472;2023-02-28T07:25:40;10.95;;;10.95;;
66669;SDS011;53568;52.164;4.472;2023-02-28T07:28:06;9.75;;;9.75;;
66669;SDS011;53568;52.164;4.472;2023-02-28T07:30:31;8.36;;;8.36;;
66669;SDS011;53568;52.164;4.472;2023-02-28T07:32:57;8.26;;;8.26;;
66669;SDS011;53568;52.164;4.472;2023-02-28T07:35:22;7.56;;;7.56;;
66669;SDS011;53568;52.164;4.472;2023-02-28T07:37:48;7.35;;;7.35;;
66669;SDS011;53568;52.164;4.472;2023-02-28T07:40:14;7.50;;;7.50;;
66669;SDS011;53568;52.164;4.472;2023-02-28T07:42:41;7.73;;;7.73;;
66669;SDS011;53568;52.164;4.472;2023-02-28T07:45:07;8.08;;;8.08;;
66669;SDS011;53568;52.164;4.472;2023-02-28T07:47:39;7.95;;;7.95;;
66669;SDS011;53568;52.164;4.472;2023-02-28T07:50:07;8.16;;;8.16;;
66669;SDS011;53568;52.164;4.472;2023-02-28T07:52:35;8.15;;;8.15;;
66669;SDS011;53568;52.164;4.472;2023-02-28T07:55:01;8.04;;;8.04;;
66669;SDS011;53568;52.164;4.472;2023-02-28T07:57:27;7.72;;;7.72;;
66669;SDS011;53568;52.164;4.472;2023-02-28T07:59:53;8.24;;;8.24;;
66669;SDS011;53568;52.164;4.472;2023-02-28T08:02:18;7.81;;;7.81;;
66669;SDS011;53568;52.164;4.472;2023-02-28T08:04:44;7.79;;;7.79;;
66669;SDS011;53568;52.164;4.472;2023-02-28T08:07:12;8.00;;;8.00;;
66669;SDS011;53568;52.164;4.472;2023-02-28T08:09:39;8.43;;;8.43;;
66669;SDS011;53568;52.164;4.472;2023-02-28T08:12:06;8.22;;;8.22;;
66669;SDS011;53568;52.164;4.472;2023-02-28T08:14:32;8.62;;;8.62;;
66669;SDS011;53568;52.164;4.472;2023-02-28T08:16:58;8.71;;;8.71;;
66669;SDS011;53568;52.164;4.472;2023-02-28T08:19:23;8.30;;;8.30;;
66669;SDS011;53568;52.164;4.472;2023-02-28T08:21:49;8.68;;;8.68;;
66669;SDS011;53568;52.164;4.472;2023-02-28T08:24:15;8.55;;;8.55;;
66669;SDS011;53568;52.164;4.472;2023-02-28T08:26:40;8.91;;;8.91;;
66669;SDS011;53568;52.164;4.472;2023-02-28T08:29:06;8.27;;;8.27;;
66669;SDS011;53568;52.164;4.472;2023-02-28T08:31:31;8.27;;;8.27;;
66669;SDS011;53568;52.164;4.472;2023-02-28T08:33:57;7.99;;;7.99;;
66669;SDS011;53568;52.164;4.472;2023-02-28T08:36:24;7.94;;;7.94;;
66669;SDS011;53568;52.164;4.472;2023-02-28T08:38:53;7.93;;;7.93;;
66669;SDS011;53568;52.164;4.472;2023-02-28T08:41:19;8.23;;;8.23;;
66669;SDS011;53568;52.164;4.472;2023-02-28T08:43:44;8.44;;;8.44;;
66669;SDS011;53568;52.164;4.472;2023-02-28T08:46:13;8.10;;;8.10;;
66669;SDS011;53568;52.164;4.472;2023-02-28T08:48:39;8.28;;;8.28;;
66669;SDS011;53568;52.164;4.472;2023-02-28T08:51:06;8.58;;;8.58;;
66669;SDS011;53568;52.164;4.472;2023-02-28T08:53:37;8.78;;;8.78;;
66669;SDS011;53568;52.164;4.472;2023-02-28T08:56:08;8.79;;;8.79;;
66669;SDS011;53568;52.164;4.472;2023-02-28T08:58:36;9.08;;;9.08;;
66669;SDS011;53568;52.164;4.472;2023-02-28T09:01:09;8.43;;;8.43;;
66669;SDS011;53568;52.164;4.472;2023-02-28T09:03:37;8.67;;;8.67;;
66669;SDS011;53568;52.164;4.472;2023-02-28T09:06:02;8.83;;;8.83;;
66669;SDS011;53568;52.164;4.472;2023-02-28T09:08:30;8.76;;;8.76;;
66669;SDS011;53568;52.164;4.472;2023-02-28T09:10:56;8.65;;;8.65;;
66669;SDS011;53568;52.164;4.472;2023-02-28T09:13:23;8.70;;;8.70;;
66669;SDS011;53568;52.164;4.472;2023-02-28T09:15:52;8.72;;;8.72;;
66669;SDS011;53568;52.164;4.472;2023-02-28T09:18:19;8.17;;;8.17;;
66669;SDS011;53568;52.164;4.472;2023-02-28T09:20:48;8.36;;;8.36;;
66669;SDS011;53568;52.164;4.472;2023-02-28T09:23:13;8.32;;;8.32;;
66669;SDS011;53568;52.164;4.472;2023-02-28T09:25:45;8.21;;;8.21;;
66669;SDS011;53568;52.164;4.472;2023-02-28T09:28:12;8.04;;;8.04;;
66669;SDS011;53568;52.164;4.472;2023-02-28T09:30:40;7.66;;;7.66;;
66669;SDS011;53568;52.164;4.472;2023-02-28T09:33:06;7.91;;;7.91;;
66669;SDS011;53568;52.164;4.472;2023-02-28T09:35:32;7.65;;;7.65;;
66669;SDS011;53568;52.164;4.472;2023-02-28T09:37:57;7.23;;;7.23;;
66669;SDS011;53568;52.164;4.472;2023-02-28T09:40:23;7.02;;;7.02;;
66669;SDS011;53568;52.164;4.472;2023-02-28T09:42:51;7.06;;;7.06;;
66669;SDS011;53568;52.164;4.472;2023-02-28T09:48:02;6.69;;;6.69;;
66669;SDS011;53568;52.164;4.472;2023-02-28T09:50:41;6.08;;;6.08;;
66669;SDS011;53568;52.164;4.472;2023-02-28T09:53:25;6.81;;;6.81;;
66669;SDS011;53568;52.164;4.472;2023-02-28T09:55:59;6.92;;;6.92;;
66669;SDS011;53568;52.164;4.472;2023-02-28T09:58:46;6.64;;;6.64;;
66669;SDS011;53568;52.164;4.472;2023-02-28T10:01:23;6.80;;;6.80;;
66669;SDS011;53568;52.164;4.472;2023-02-28T10:06:44;6.43;;;6.43;;
66669;SDS011;53568;52.164;4.472;2023-02-28T10:11:47;6.06;;;6.06;;
66669;SDS011;53568;52.164;4.472;2023-02-28T10:14:28;5.93;;;5.93;;
66669;SDS011;53568;52.164;4.472;2023-02-28T10:17:02;6.32;;;6.32;;
66669;SDS011;53568;52.164;4.472;2023-02-28T10:19:38;6.06;;;6.06;;
66669;SDS011;53568;52.164;4.472;2023-02-28T10:22:50;5.54;;;5.54;;
66669;SDS011;53568;52.164;4.472;2023-02-28T10:25:33;5.24;;;5.24;;
66669;SDS011;53568;52.164;4.472;2023-02-28T10:28:04;5.72;;;5.72;;
66669;SDS011;53568;52.164;4.472;2023-02-28T10:30:48;5.88;;;5.88;;
66669;SDS011;53568;52.164;4.472;2023-02-28T10:33:21;6.02;;;6.02;;
66669;SDS011;53568;52.164;4.472;2023-02-28T10:35:59;6.33;;;6.33;;
66669;SDS011;53568;52.164;4.472;2023-02-28T10:38:28;7.19;;;7.19;;
66669;SDS011;53568;52.164;4.472;2023-02-28T10:41:06;6.90;;;6.90;;
66669;SDS011;53568;52.164;4.472;2023-02-28T10:43:32;6.78;;;6.78;;
66669;SDS011;53568;52.164;4.472;2023-02-28T10:45:59;6.75;;;6.75;;
66669;SDS011;53568;52.164;4.472;2023-02-28T10:48:38;6.43;;;6.43;;
66669;SDS011;53568;52.164;4.472;2023-02-28T10:51:24;6.59;;;6.59;;
66669;SDS011;53568;52.164;4.472;2023-02-28T10:53:52;5.51;;;5.51;;
66669;SDS011;53568;52.164;4.472;2023-02-28T10:56:21;5.15;;;5.15;;
66669;SDS011;53568;52.164;4.472;2023-02-28T10:58:50;5.44;;;5.44;;
66669;SDS011;53568;52.164;4.472;2023-02-28T11:01:18;5.40;;;5.40;;
66669;SDS011;53568;52.164;4.472;2023-02-28T11:03:49;5.41;;;5.41;;
66669;SDS011;53568;52.164;4.472;2023-02-28T11:08:45;5.60;;;5.60;;
66669;SDS011;53568;52.164;4.472;2023-02-28T11:11:14;5.48;;;5.48;;
66669;SDS011;53568;52.164;4.472;2023-02-28T11:13:42;5.65;;;5.65;;
66669;SDS011;53568;52.164;4.472;2023-02-28T11:16:11;5.81;;;5.81;;
66669;SDS011;53568;52.164;4.472;2023-02-28T11:18:49;6.06;;;6.06;;
66669;SDS011;53568;52.164;4.472;2023-02-28T11:21:19;6.12;;;6.12;;
66669;SDS011;53568;52.164;4.472;2023-02-28T11:23:56;6.12;;;6.12;;
66669;SDS011;53568;52.164;4.472;2023-02-28T11:29:25;5.65;;;5.65;;
66669;SDS011;53568;52.164;4.472;2023-02-28T11:34:34;5.65;;;5.65;;
66669;SDS011;53568;52.164;4.472;2023-02-28T11:37:02;5.29;;;5.29;;
66669;SDS011;53568;52.164;4.472;2023-02-28T11:39:30;5.64;;;5.64;;
66669;SDS011;53568;52.164;4.472;2023-02-28T11:48:08;5.34;;;5.34;;
66669;SDS011;53568;52.164;4.472;2023-02-28T11:53:51;5.66;;;5.66;;
66669;SDS011;53568;52.164;4.472;2023-02-28T11:56:33;5.61;;;5.61;;
66669;SDS011;53568;52.164;4.472;2023-02-28T12:07:19;5.37;;;5.36;;
66669;SDS011;53568;52.164;4.472;2023-02-28T12:09:56;5.31;;;5.31;;
66669;SDS011;53568;52.164;4.472;2023-02-28T12:21:11;5.19;;;5.19;;
66669;SDS011;53568;52.164;4.472;2023-02-28T12:26:49;5.43;;;5.43;;
66669;SDS011;53568;52.164;4.472;2023-02-28T12:32:05;5.15;;;5.15;;
66669;SDS011;53568;52.164;4.472;2023-02-28T12:34:41;4.96;;;4.96;;
66669;SDS011;53568;52.164;4.472;2023-02-28T12:37:17;4.77;;;4.77;;
66669;SDS011;53568;52.164;4.472;2023-02-28T12:40:19;4.84;;;4.84;;
66669;SDS011;53568;52.164;4.472;2023-02-28T12:42:49;5.06;;;5.06;;
66669;SDS011;53568;52.164;4.472;2023-02-28T12:48:06;4.78;;;4.78;;
66669;SDS011;53568;52.164;4.472;2023-02-28T12:50:36;4.84;;;4.84;;
66669;SDS011;53568;52.164;4.472;2023-02-28T12:53:03;5.08;;;5.08;;
66669;SDS011;53568;52.164;4.472;2023-02-28T12:58:21;5.89;;;5.89;;
66669;SDS011;53568;52.164;4.472;2023-02-28T13:03:37;4.78;;;4.78;;
66669;SDS011;53568;52.164;4.472;2023-02-28T13:07:20;4.79;;;4.79;;
66669;SDS011;53568;52.164;4.472;2023-02-28T13:09:29;5.11;;;5.11;;
66669;SDS011;53568;52.164;4.472;2023-02-28T13:11:55;5.04;;;5.04;;
66669;SDS011;53568;52.164;4.472;2023-02-28T13:14:29;5.21;;;5.21;;
66669;SDS011;53568;52.164;4.472;2023-02-28T13:19:39;5.16;;;5.16;;
66669;SDS011;53568;52.164;4.472;2023-02-28T13:28:11;4.90;;;4.90;;
66669;SDS011;53568;52.164;4.472;2023-02-28T13:38:44;5.25;;;5.25;;
66669;SDS011;53568;52.164;4.472;2023-02-28T13:46:34;5.37;;;5.37;;
66669;SDS011;53568;52.164;4.472;2023-02-28T13:57:24;5.23;;;5.23;;
66669;SDS011;53568;52.164;4.472;2023-02-28T14:00:19;5.60;;;5.60;;
66669;SDS011;53568;52.164;4.472;2023-02-28T14:03:10;5.89;;;5.89;;
66669;SDS011;53568;52.164;4.472;2023-02-28T14:06:09;5.92;;;5.92;;
66669;SDS011;53568;52.164;4.472;2023-02-28T14:08:55;6.17;;;6.17;;
66669;SDS011;53568;52.164;4.472;2023-02-28T14:11:34;5.81;;;5.81;;
66669;SDS011;53568;52.164;4.472;2023-02-28T14:14:02;5.62;;;5.62;;
66669;SDS011;53568;52.164;4.472;2023-02-28T14:16:46;5.72;;;5.72;;
66669;SDS011;53568;52.164;4.472;2023-02-28T14:19:24;5.78;;;5.78;;
66669;SDS011;53568;52.164;4.472;2023-02-28T14:36:06;5.43;;;5.43;;
66669;SDS011;53568;52.164;4.472;2023-02-28T14:38:42;5.90;;;5.90;;
66669;SDS011;53568;52.164;4.472;2023-02-28T14:46:56;5.42;;;5.42;;
66669;SDS011;53568;52.164;4.472;2023-02-28T14:49:30;5.29;;;5.29;;
66669;SDS011;53568;52.164;4.472;2023-02-28T14:54:35;5.34;;;5.34;;
66669;SDS011;53568;52.164;4.472;2023-02-28T14:57:02;5.56;;;5.56;;
66669;SDS011;53568;52.164;4.472;2023-02-28T14:59:30;5.57;;;5.57;;
66669;SDS011;53568;52.164;4.472;2023-02-28T15:07:38;5.51;;;5.51;;
66669;SDS011;53568;52.164;4.472;2023-02-28T15:10:16;5.90;;;5.90;;
66669;SDS011;53568;52.164;4.472;2023-02-28T15:12:52;5.73;;;5.73;;
66669;SDS011;53568;52.164;4.472;2023-02-28T15:15:21;5.67;;;5.67;;
66669;SDS011;53568;52.164;4.472;2023-02-28T15:17:58;5.59;;;5.59;;
66669;SDS011;53568;52.164;4.472;2023-02-28T15:20:27;5.53;;;5.53;;
66669;SDS011;53568;52.164;4.472;2023-02-28T15:22:54;5.25;;;5.25;;
66669;SDS011;53568;52.164;4.472;2023-02-28T15:25:21;5.43;;;5.43;;
66669;SDS011;53568;52.164;4.472;2023-02-28T15:27:52;5.75;;;5.75;;
66669;SDS011;53568;52.164;4.472;2023-02-28T15:30:24;5.63;;;5.63;;
66669;SDS011;53568;52.164;4.472;2023-02-28T15:35:43;5.82;;;5.82;;
66669;SDS011;53568;52.164;4.472;2023-02-28T15:38:14;5.75;;;5.75;;
66669;SDS011;53568;52.164;4.472;2023-02-28T15:40:41;5.45;;;5.45;;
66669;SDS011;53568;52.164;4.472;2023-02-28T15:43:13;5.84;;;5.84;;
66669;SDS011;53568;52.164;4.472;2023-02-28T15:45:44;5.75;;;5.75;;
66669;SDS011;53568;52.164;4.472;2023-02-28T15:48:16;5.59;;;5.59;;
66669;SDS011;53568;52.164;4.472;2023-02-28T15:50:55;5.51;;;5.51;;
66669;SDS011;53568;52.164;4.472;2023-02-28T15:53:27;5.40;;;5.40;;
66669;SDS011;53568;52.164;4.472;2023-02-28T15:56:02;5.06;;;5.06;;
66669;SDS011;53568;52.164;4.472;2023-02-28T15:58:32;5.20;;;5.20;;
66669;SDS011;53568;52.164;4.472;2023-02-28T16:01:03;5.39;;;5.39;;
66669;SDS011;53568;52.164;4.472;2023-02-28T16:03:37;5.83;;;5.83;;
66669;SDS011;53568;52.164;4.472;2023-02-28T16:08:50;5.07;;;5.07;;
66669;SDS011;53568;52.164;4.472;2023-02-28T16:11:16;5.41;;;5.41;;
66669;SDS011;53568;52.164;4.472;2023-02-28T16:13:42;5.23;;;5.23;;
66669;SDS011;53568;52.164;4.472;2023-02-28T16:16:08;5.32;;;5.32;;
66669;SDS011;53568;52.164;4.472;2023-02-28T16:18:39;5.58;;;5.58;;
66669;SDS011;53568;52.164;4.472;2023-02-28T16:21:05;5.78;;;5.78;;
66669;SDS011;53568;52.164;4.472;2023-02-28T16:23:30;6.12;;;6.12;;
66669;SDS011;53568;52.164;4.472;2023-02-28T16:25:56;5.72;;;5.72;;
66669;SDS011;53568;52.164;4.472;2023-02-28T16:28:25;5.40;;;5.40;;
66669;SDS011;53568;52.164;4.472;2023-02-28T16:30:59;5.46;;;5.46;;
66669;SDS011;53568;52.164;4.472;2023-02-28T16:33:28;5.34;;;5.34;;
66669;SDS011;53568;52.164;4.472;2023-02-28T16:35:54;5.44;;;5.44;;
66669;SDS011;53568;52.164;4.472;2023-02-28T16:38:20;5.31;;;5.31;;
66669;SDS011;53568;52.164;4.472;2023-02-28T16:40:46;5.61;;;5.61;;
66669;SDS011;53568;52.164;4.472;2023-02-28T16:43:16;5.62;;;5.62;;
66669;SDS011;53568;52.164;4.472;2023-02-28T16:45:46;5.48;;;5.48;;
66669;SDS011;53568;52.164;4.472;2023-02-28T16:48:13;5.76;;;5.76;;
66669;SDS011;53568;52.164;4.472;2023-02-28T16:50:40;5.88;;;5.88;;
66669;SDS011;53568;52.164;4.472;2023-02-28T16:53:07;5.99;;;5.99;;
66669;SDS011;53568;52.164;4.472;2023-02-28T16:55:33;5.74;;;5.74;;
66669;SDS011;53568;52.164;4.472;2023-02-28T16:58:00;5.91;;;5.91;;
66669;SDS011;53568;52.164;4.472;2023-02-28T17:00:27;6.15;;;6.15;;
66669;SDS011;53568;52.164;4.472;2023-02-28T17:02:55;6.25;;;6.25;;
66669;SDS011;53568;52.164;4.472;2023-02-28T17:05:21;6.28;;;6.28;;
66669;SDS011;53568;52.164;4.472;2023-02-28T17:07:48;6.39;;;6.39;;
66669;SDS011;53568;52.164;4.472;2023-02-28T17:12:44;6.86;;;6.86;;
66669;SDS011;53568;52.164;4.472;2023-02-28T17:15:13;6.70;;;6.70;;
66669;SDS011;53568;52.164;4.472;2023-02-28T17:17:40;6.65;;;6.65;;
66669;SDS011;53568;52.164;4.472;2023-02-28T17:20:11;6.58;;;6.58;;
66669;SDS011;53568;52.164;4.472;2023-02-28T17:22:41;6.73;;;6.73;;
66669;SDS011;53568;52.164;4.472;2023-02-28T17:25:07;6.54;;;6.54;;
66669;SDS011;53568;52.164;4.472;2023-02-28T17:27:34;6.63;;;6.63;;
66669;SDS011;53568;52.164;4.472;2023-02-28T17:30:00;6.66;;;6.66;;
66669;SDS011;53568;52.164;4.472;2023-02-28T17:32:26;6.89;;;6.89;;
66669;SDS011;53568;52.164;4.472;2023-02-28T17:34:52;7.20;;;7.20;;
66669;SDS011;53568;52.164;4.472;2023-02-28T17:37:18;7.21;;;7.21;;
66669;SDS011;53568;52.164;4.472;2023-02-28T17:39:44;7.74;;;7.74;;